Time;durP1;ratioP1;P1;durP2;ratioP2;P2;SDS_P1;SDS_P2;PMS_P1;PMS_P2;Temp;Humidity;BMP_temperature;BMP_pressure;BME280_temperature;BME280_humidity;BME280_pressure;Samples;Min_cycle;Max_cycle;Signal;HPM_P1;HPM_P2
2023/08/19 00:01:12;;;;;;;3.80;3.50;;;;;;;25.02;43.56;94955.00;5038991;28;20201;-65
2023/08/19 00:03:42;;;;;;;3.67;3.38;;;;;;;24.98;43.85;94952.28;5055079;28;20205;-65
2023/08/19 00:06:17;;;;;;;5.53;3.08;;;;;;;24.96;43.62;94946.31;5038582;28;20204;-64
2023/08/19 00:08:44;;;;;;;3.13;2.88;;;;;;;24.92;43.78;94951.25;5037186;28;20563;-64
2023/08/19 00:11:10;;;;;;;4.80;3.38;;;;;;;24.90;43.86;94950.91;5038089;28;20220;-65
2023/08/19 00:13:38;;;;;;;3.30;3.00;;;;;;;24.91;43.92;94951.69;5054860;28;20530;-65
2023/08/19 00:16:07;;;;;;;3.90;3.60;;;;;;;24.92;43.91;94956.91;5037228;28;20213;-66
2023/08/19 00:18:34;;;;;;;3.25;3.03;;;;;;;24.90;43.66;94952.94;5037770;28;20186;-66
2023/08/19 00:21:01;;;;;;;3.55;3.20;;;;;;;24.92;44.07;94954.09;5037750;28;20209;-66
2023/08/19 00:23:33;;;;;;;4.80;3.60;;;;;;;24.91;43.76;94952.50;5055147;28;20280;-66
2023/08/19 00:26:01;;;;;;;4.82;3.45;;;;;;;24.89;44.14;94957.00;5037829;28;20636;-66
2023/08/19 00:28:28;;;;;;;3.65;3.30;;;;;;;24.86;44.10;94947.41;5037814;28;20210;-65
2023/08/19 00:30:55;;;;;;;5.05;3.30;;;;;;;24.86;43.89;94946.63;5054277;28;20256;-66
2023/08/19 00:33:24;;;;;;;3.58;3.28;;;;;;;24.82;43.95;94927.00;5037675;28;20206;-66
2023/08/19 00:35:53;;;;;;;4.97;3.60;;;;;;;24.82;44.31;94937.47;5037969;28;20232;-65
2023/08/19 00:38:21;;;;;;;3.65;3.30;;;;;;;24.78;44.38;94933.97;5039248;28;20241;-66
2023/08/19 00:40:49;;;;;;;4.07;3.72;;;;;;;24.79;44.13;94927.09;5054255;28;20194;-66
2023/08/19 00:43:18;;;;;;;5.55;3.33;;;;;;;24.71;44.20;94918.84;5054470;28;20255;-65
2023/08/19 00:45:48;;;;;;;3.65;3.35;;;;;;;24.66;44.49;94921.44;5054466;28;20652;-65
2023/08/19 00:48:21;;;;;;;3.65;3.35;;;;;;;24.66;44.44;94924.28;5054178;28;20640;-66
2023/08/19 00:50:49;;;;;;;4.22;3.47;;;;;;;24.65;44.32;94923.44;5055216;28;20186;-66
2023/08/19 00:53:17;;;;;;;3.65;3.13;;;;;;;24.66;44.42;94922.25;5053884;28;20546;-65
2023/08/19 00:55:45;;;;;;;3.60;3.30;;;;;;;24.65;44.47;94920.63;5054169;28;20213;-64
2023/08/19 00:58:17;;;;;;;3.30;3.00;;;;;;;24.67;44.45;94923.03;5054784;28;20194;-64
2023/08/19 01:00:46;;;;;;;3.85;3.08;;;;;;;24.68;44.61;94916.13;5054136;28;20227;-64
2023/08/19 01:03:14;;;;;;;3.40;3.10;;;;;;;24.69;44.35;94917.72;5070898;28;20208;-65
2023/08/19 01:05:53;;;;;;;3.70;3.40;;;;;;;24.70;44.41;94920.09;5054046;28;20193;-65
2023/08/19 01:08:26;;;;;;;3.28;2.90;;;;;;;24.64;44.48;94918.28;5054207;28;20212;-64
2023/08/19 01:11:01;;;;;;;3.35;3.05;;;;;;;24.66;44.29;94925.06;5053694;28;20194;-64
2023/08/19 01:13:44;;;;;;;4.18;3.22;;;;;;;24.66;44.38;94925.06;5054548;28;20197;-64
2023/08/19 01:16:22;;;;;;;3.53;3.22;;;;;;;24.65;44.59;94928.31;5054058;28;20217;-64
2023/08/19 01:18:50;;;;;;;3.90;3.50;;;;;;;24.63;44.91;94928.78;5053866;28;20203;-65
2023/08/19 01:21:19;;;;;;;6.68;3.47;;;;;;;24.60;44.80;94928.88;5054354;28;20209;-64
2023/08/19 01:23:48;;;;;;;3.53;3.20;;;;;;;24.58;44.95;94926.50;5054465;28;20194;-64
2023/08/19 01:26:19;;;;;;;3.55;3.25;;;;;;;24.57;44.91;94932.59;5053829;28;20212;-65
2023/08/19 01:28:47;;;;;;;3.95;3.47;;;;;;;24.54;44.98;94934.25;5057724;28;20201;-64
2023/08/19 01:31:16;;;;;;;3.67;3.38;;;;;;;24.50;44.72;94931.53;5057830;28;20212;-64
2023/08/19 01:33:44;;;;;;;3.50;3.20;;;;;;;24.52;45.05;94916.22;5074371;28;20229;-64
2023/08/19 01:36:19;;;;;;;3.42;3.22;;;;;;;24.48;45.12;94916.34;5057384;28;20677;-64
2023/08/19 01:38:52;;;;;;;3.95;3.30;;;;;;;24.49;44.97;94915.09;5057566;28;20237;-64
2023/08/19 01:41:26;;;;;;;3.90;3.50;;;;;;;24.43;45.00;94919.69;5057859;28;20194;-64
2023/08/19 01:43:55;;;;;;;3.83;3.53;;;;;;;24.39;45.09;94910.50;5058395;28;20181;-64
2023/08/19 01:46:23;;;;;;;4.03;3.63;;;;;;;24.32;45.33;94908.69;5074170;28;20548;-64
2023/08/19 01:48:51;;;;;;;4.68;3.70;;;;;;;24.29;45.69;94900.34;5057373;28;20200;-64
2023/08/19 01:51:18;;;;;;;3.90;3.60;;;;;;;24.24;45.53;94899.66;5057224;28;20205;-64
2023/08/19 01:53:46;;;;;;;4.55;3.70;;;;;;;24.25;45.63;94912.50;5057280;28;20201;-64
2023/08/19 01:56:14;;;;;;;4.53;3.72;;;;;;;24.20;45.36;94910.25;5057290;28;20210;-64
2023/08/19 01:58:42;;;;;;;5.72;3.63;;;;;;;24.14;45.40;94911.22;5057253;28;20219;-64
2023/08/19 02:01:12;;;;;;;3.60;3.30;;;;;;;24.14;45.91;94912.00;5057632;28;20209;-64
2023/08/19 02:03:40;;;;;;;5.28;4.00;;;;;;;24.14;45.91;94919.69;5057428;28;20197;-64
2023/08/19 02:06:08;;;;;;;3.88;3.58;;;;;;;24.11;45.84;94910.09;5056841;28;20197;-64
2023/08/19 02:08:35;;;;;;;6.03;4.20;;;;;;;24.13;45.63;94918.09;5057176;28;20207;-64
2023/08/19 02:11:03;;;;;;;4.32;3.70;;;;;;;24.11;45.72;94920.56;5057767;28;20189;-64
2023/08/19 02:13:30;;;;;;;4.90;3.67;;;;;;;24.09;46.01;94915.38;5056821;28;20240;-64
2023/08/19 02:15:59;;;;;;;4.22;3.88;;;;;;;24.02;46.10;94907.91;5057221;28;20222;-64
2023/08/19 02:18:28;;;;;;;3.88;3.53;;;;;;;24.01;46.26;94909.16;5056881;28;20190;-64
2023/08/19 02:20:56;;;;;;;3.90;3.60;;;;;;;24.01;46.21;94916.81;5057937;28;20244;-64
2023/08/19 02:23:24;;;;;;;4.03;3.72;;;;;;;24.02;46.26;94910.72;5057205;28;20206;-65
2023/08/19 02:25:52;;;;;;;4.82;3.97;;;;;;;23.98;46.27;94914.88;5057088;28;20186;-65
2023/08/19 02:28:21;;;;;;;4.45;4.03;;;;;;;23.94;46.13;94912.16;5056748;28;20288;-64
2023/08/19 02:30:49;;;;;;;4.20;3.80;;;;;;;23.95;46.41;94922.19;5056180;28;20196;-64
2023/08/19 02:33:18;;;;;;;4.65;4.25;;;;;;;23.94;46.66;94919.84;5056796;28;20201;-64
2023/08/19 02:35:50;;;;;;;4.45;3.60;;;;;;;23.92;46.46;94916.66;5056685;28;20206;-64
2023/08/19 02:38:18;;;;;;;4.32;3.92;;;;;;;23.87;46.49;94912.34;5060449;28;20239;-64
2023/08/19 02:40:49;;;;;;;4.32;3.92;;;;;;;23.85;46.41;94914.03;5059465;28;20200;-64
2023/08/19 02:43:19;;;;;;;3.90;3.60;;;;;;;23.83;46.58;94914.47;5059786;28;20277;-64
2023/08/19 02:45:47;;;;;;;4.30;3.90;;;;;;;23.82;46.55;94917.72;5076419;28;20197;-64
2023/08/19 02:48:15;;;;;;;4.45;4.10;;;;;;;23.82;46.41;94917.72;5059460;28;20198;-65
2023/08/19 02:50:43;;;;;;;4.18;3.78;;;;;;;23.78;46.71;94921.44;5059430;28;20201;-65
2023/08/19 02:53:10;;;;;;;3.72;3.42;;;;;;;23.80;46.77;94923.03;5059580;28;20205;-66
2023/08/19 02:55:43;;;;;;;4.75;3.75;;;;;;;23.80;46.56;94928.66;5059656;28;20193;-64
2023/08/19 02:58:13;;;;;;;4.05;3.75;;;;;;;23.81;46.67;94927.41;5059793;28;20204;-64
2023/08/19 03:00:40;;;;;;;4.13;3.72;;;;;;;23.75;46.40;94924.38;5059488;28;20201;-64
2023/08/19 03:03:08;;;;;;;4.10;3.80;;;;;;;23.72;46.68;94926.03;5059396;28;20251;-64
2023/08/19 03:05:39;;;;;;;4.50;4.10;;;;;;;23.73;46.82;94933.22;5059482;28;20201;-64
2023/08/19 03:08:10;;;;;;;4.80;4.07;;;;;;;23.71;46.29;94926.44;5059310;28;20197;-65
2023/08/19 03:10:39;;;;;;;5.38;3.85;;;;;;;23.69;46.76;94924.09;5076895;28;20197;-65
2023/08/19 03:13:08;;;;;;;3.92;3.55;;;;;;;23.74;46.58;94917.91;5059631;28;20192;-65
2023/08/19 03:15:40;;;;;;;3.97;3.67;;;;;;;23.69;46.33;94917.66;5059097;28;20201;-65
2023/08/19 03:18:09;;;;;;;4.47;4.07;;;;;;;23.66;46.59;94930.56;5059005;28;20523;-64
2023/08/19 03:20:36;;;;;;;4.90;4.10;;;;;;;23.70;46.58;94922.06;5059127;28;20193;-64
2023/08/19 03:23:05;;;;;;;4.18;3.67;;;;;;;23.67;46.34;94928.56;5058876;28;20201;-65
2023/08/19 03:25:34;;;;;;;4.35;3.85;;;;;;;23.67;46.72;94923.72;5075926;28;20208;-65
2023/08/19 03:28:02;;;;;;;5.47;3.90;;;;;;;23.66;46.60;94927.75;5076238;28;20185;-66
2023/08/19 03:30:32;;;;;;;4.20;3.80;;;;;;;23.63;46.38;94923.00;5058651;28;20204;-65
2023/08/19 03:33:00;;;;;;;4.28;3.97;;;;;;;23.61;46.58;94927.50;5058742;28;20223;-66
2023/08/19 03:35:28;;;;;;;4.30;3.90;;;;;;;23.58;46.49;94925.56;5075367;28;20197;-65
2023/08/19 03:37:56;;;;;;;4.10;3.80;;;;;;;23.53;46.62;94922.06;5058355;28;20224;-65
2023/08/19 03:40:23;;;;;;;4.65;4.10;;;;;;;23.46;46.80;94925.06;5075386;28;20201;-65
2023/08/19 03:42:51;;;;;;;4.18;3.78;;;;;;;23.40;47.05;94924.00;5058527;28;20193;-65
2023/08/19 03:45:19;;;;;;;4.00;3.67;;;;;;;23.37;46.95;94932.53;5058408;28;20208;-65
2023/08/19 03:47:48;;;;;;;5.15;4.05;;;;;;;23.36;46.84;94928.13;5058762;28;20213;-65
2023/08/19 03:50:16;;;;;;;3.85;3.55;;;;;;;23.30;47.23;94927.84;5058340;28;20205;-65
2023/08/19 03:52:45;;;;;;;4.30;3.90;;;;;;;23.33;47.24;94929.00;5074851;28;20246;-64
2023/08/19 03:55:14;;;;;;;4.53;4.13;;;;;;;23.34;46.96;94928.56;5058994;28;20500;-64
2023/08/19 03:57:42;;;;;;;4.38;3.97;;;;;;;23.41;46.81;94928.38;5058529;28;20220;-64
2023/08/19 04:00:12;;;;;;;3.88;3.50;;;;;;;23.44;46.84;94933.13;5058256;28;20524;-65
2023/08/19 04:02:39;;;;;;;4.47;3.63;;;;;;;23.45;46.34;94925.47;5075485;28;20185;-65
2023/08/19 04:05:09;;;;;;;3.92;3.60;;;;;;;23.47;46.46;94928.66;5057942;28;20620;-65
2023/08/19 04:07:37;;;;;;;5.70;4.28;;;;;;;23.43;46.50;94931.56;5058271;28;20235;-65
2023/08/19 04:10:06;;;;;;;5.00;4.28;;;;;;;23.38;46.87;94934.88;5058245;28;20190;-65
2023/08/19 04:12:33;;;;;;;4.85;4.43;;;;;;;23.32;46.56;94939.47;5074453;28;20205;-64
2023/08/19 04:15:00;;;;;;;4.22;3.83;;;;;;;23.26;46.96;94938.41;5074661;28;20201;-64
2023/08/19 04:17:30;;;;;;;4.45;4.05;;;;;;;23.22;47.18;94946.16;5058100;28;20551;-64
2023/08/19 04:19:56;;;;;;;5.72;3.72;;;;;;;23.21;47.28;94942.53;5057653;28;20609;-64
2023/08/19 04:22:24;;;;;;;4.78;4.18;;;;;;;23.20;47.31;94937.34;5057971;28;20204;-64
2023/08/19 04:24:53;;;;;;;4.95;3.80;;;;;;;23.17;47.19;94941.06;5057870;28;20194;-64
2023/08/19 04:27:21;;;;;;;5.20;4.22;;;;;;;23.13;47.42;94941.13;5057625;28;20201;-63
2023/08/19 04:29:49;;;;;;;5.13;4.35;;;;;;;23.14;47.59;94944.75;5058175;28;20200;-64
2023/08/19 04:32:18;;;;;;;6.30;4.05;;;;;;;23.11;47.57;94949.22;5057525;28;20193;-64
2023/08/19 04:34:50;;;;;;;5.32;4.22;;;;;;;23.06;47.69;94953.34;5057520;28;20258;-64
2023/08/19 04:37:20;;;;;;;4.18;3.88;;;;;;;22.99;47.97;94964.75;5057954;28;20583;-64
2023/08/19 04:39:48;;;;;;;5.22;4.65;;;;;;;22.98;47.99;94970.81;5054407;28;20260;-64
2023/08/19 04:42:15;;;;;;;5.68;4.40;;;;;;;22.95;48.26;94971.66;5054053;28;20190;-64
2023/08/19 04:44:43;;;;;;;6.03;4.55;;;;;;;22.90;48.70;94967.31;5070947;28;20200;-65
2023/08/19 04:47:10;;;;;;;4.82;4.43;;;;;;;22.90;48.60;94975.75;5054010;28;20273;-67
2023/08/19 04:49:38;;;;;;;4.65;4.25;;;;;;;22.88;48.62;94978.22;5055087;28;20197;-67
2023/08/19 04:52:07;;;;;;;4.72;4.30;;;;;;;22.86;48.36;94977.88;5054249;28;20213;-67
2023/08/19 04:54:34;;;;;;;4.40;4.00;;;;;;;22.85;48.40;94981.91;5053875;28;20213;-67
2023/08/19 04:57:04;;;;;;;4.70;4.22;;;;;;;22.87;48.70;94978.66;5054012;28;20230;-67
2023/08/19 04:59:36;;;;;;;4.95;4.18;;;;;;;22.96;48.71;94987.34;5054590;28;20193;-66
2023/08/19 05:02:04;;;;;;;4.25;3.85;;;;;;;23.10;48.25;94981.38;5053614;28;20201;-66
2023/08/19 05:04:32;;;;;;;4.47;4.10;;;;;;;23.16;48.01;94999.31;5070466;28;20216;-67
2023/08/19 05:07:00;;;;;;;4.18;3.85;;;;;;;23.27;48.23;94985.00;5053676;28;20634;-66
2023/08/19 05:09:29;;;;;;;5.80;4.30;;;;;;;23.32;47.95;94987.31;5054418;28;20201;-66
2023/08/19 05:11:57;;;;;;;4.97;4.20;;;;;;;23.40;47.48;94988.72;5054031;28;20205;-66
2023/08/19 05:14:26;;;;;;;5.13;4.18;;;;;;;23.45;47.96;94988.19;5053743;28;20193;-66
2023/08/19 05:16:57;;;;;;;4.10;3.80;;;;;;;23.53;47.30;94988.84;5053502;28;20262;-66
2023/08/19 05:19:24;;;;;;;4.70;4.30;;;;;;;23.54;47.59;94993.22;5053761;28;20275;-66
2023/08/19 05:21:52;;;;;;;4.40;4.03;;;;;;;23.61;47.36;94990.22;5053692;28;20210;-66
2023/08/19 05:24:23;;;;;;;5.75;4.40;;;;;;;23.64;47.03;94994.16;5053670;28;20189;-66
2023/08/19 05:26:53;;;;;;;5.43;4.25;;;;;;;23.64;47.18;94986.53;5053678;28;20263;-66
2023/08/19 05:29:21;;;;;;;5.50;5.00;;;;;;;23.67;47.35;94987.69;5054807;28;20184;-66
2023/08/19 05:31:53;;;;;;;5.13;4.57;;;;;;;23.71;47.12;94991.22;5053921;28;20201;-66
2023/08/19 05:34:21;;;;;;;5.00;4.55;;;;;;;23.76;46.91;94985.06;5053482;28;20652;-68
2023/08/19 05:36:49;;;;;;;4.50;4.10;;;;;;;23.75;46.82;94991.94;5053637;28;20222;-66
2023/08/19 05:39:17;;;;;;;4.32;3.92;;;;;;;23.69;46.97;94983.22;5053372;28;20234;-67
2023/08/19 05:41:45;;;;;;;5.78;4.60;;;;;;;23.64;47.43;94980.91;5053760;28;20198;-65
2023/08/19 05:44:17;;;;;;;6.53;5.93;;;;;;;23.67;47.55;94982.84;5053480;28;20216;-65
2023/08/19 05:46:46;;;;;;;6.82;6.25;;;;;;;23.75;47.26;94977.88;5053754;28;20210;-65
2023/08/19 05:49:13;;;;;;;4.90;4.47;;;;;;;23.78;46.85;94979.78;5054635;28;20194;-65
2023/08/19 05:51:42;;;;;;;6.63;4.65;;;;;;;23.81;46.83;94978.09;5053984;28;20217;-65
2023/08/19 05:54:11;;;;;;;4.85;4.45;;;;;;;23.86;46.83;94963.50;5053654;28;20194;-65
2023/08/19 05:56:38;;;;;;;5.38;4.38;;;;;;;23.89;46.56;94973.88;5053495;28;20208;-65
2023/08/19 05:59:04;;;;;;;4.45;4.05;;;;;;;23.90;46.37;94972.66;5053685;28;20202;-65
2023/08/19 06:01:32;;;;;;;5.22;4.10;;;;;;;23.94;46.21;94964.91;5053907;28;20209;-65
2023/08/19 06:04:03;;;;;;;5.32;4.20;;;;;;;23.97;46.67;94972.47;5053490;28;20205;-65
2023/08/19 06:06:31;;;;;;;4.50;3.80;;;;;;;24.02;45.91;94974.72;5053354;28;20185;-65
2023/08/19 06:09:00;;;;;;;4.07;3.78;;;;;;;24.05;45.77;94968.22;5053530;28;20209;-65
2023/08/19 06:11:29;;;;;;;4.50;4.10;;;;;;;24.05;45.59;94976.66;5053621;28;20540;-65
2023/08/19 06:13:58;;;;;;;4.60;4.10;;;;;;;24.08;45.72;94977.81;5054554;28;20192;-65
2023/08/19 06:16:29;;;;;;;4.57;4.18;;;;;;;24.09;46.06;94988.63;5056672;28;20225;-65
2023/08/19 06:19:03;;;;;;;5.72;4.63;;;;;;;24.08;46.00;94989.09;5073207;28;20603;-65
2023/08/19 06:21:33;;;;;;;4.38;3.85;;;;;;;24.09;46.24;94987.84;5056835;28;20200;-65
2023/08/19 06:24:04;;;;;;;4.85;4.40;;;;;;;24.11;46.11;94991.00;5056830;28;20251;-65
2023/08/19 06:26:33;;;;;;;5.57;5.07;;;;;;;24.17;46.14;95006.13;5056527;28;20513;-65
2023/08/19 06:29:03;;;;;;;6.13;5.60;;;;;;;24.22;46.02;94999.94;5073126;28;20642;-66
2023/08/19 06:31:31;;;;;;;6.18;5.57;;;;;;;24.27;46.30;95002.25;5056979;28;20240;-68
2023/08/19 06:34:02;;;;;;;7.72;5.40;;;;;;;24.29;45.91;94996.16;5056597;28;20201;-65
2023/08/19 06:36:33;;;;;;;8.95;4.47;;;;;;;24.27;45.90;95005.84;5056727;28;20209;-67
2023/08/19 06:39:07;;;;;;;6.38;4.60;;;;;;;24.26;46.05;95007.09;5073148;28;20232;-65
2023/08/19 06:41:38;;;;;;;5.28;4.43;;;;;;;24.25;46.16;95005.50;5056853;28;20200;-65
2023/08/19 06:44:09;;;;;;;4.57;3.92;;;;;;;24.27;46.15;95008.66;5056859;28;20201;-65
2023/08/19 06:46:36;;;;;;;5.32;4.28;;;;;;;24.29;45.59;95013.84;5056199;28;20189;-65
2023/08/19 06:49:09;;;;;;;5.45;3.75;;;;;;;24.31;45.88;95005.75;5056842;28;20686;-65
2023/08/19 06:51:40;;;;;;;4.55;3.78;;;;;;;24.34;45.44;95001.25;5056746;28;20573;-65
2023/08/19 06:54:10;;;;;;;6.38;4.13;;;;;;;24.36;45.53;95005.19;5056294;28;20193;-65
2023/08/19 06:56:43;;;;;;;4.80;4.07;;;;;;;24.40;45.78;95013.59;5056320;28;20194;-65
2023/08/19 06:59:18;;;;;;;5.13;3.55;;;;;;;24.42;45.38;95003.47;5055916;28;20256;-65
2023/08/19 07:01:54;;;;;;;5.07;4.00;;;;;;;24.45;45.08;95002.56;5056560;28;20200;-65
2023/08/19 07:04:29;;;;;;;3.85;3.53;;;;;;;24.48;44.94;95015.78;5056226;28;20208;-65
2023/08/19 07:06:58;;;;;;;4.45;4.07;;;;;;;24.49;45.10;95006.09;5055990;28;20205;-65
2023/08/19 07:09:26;;;;;;;4.88;4.03;;;;;;;24.51;44.65;95008.47;5056232;28;20209;-65
2023/08/19 07:11:56;;;;;;;5.25;3.80;;;;;;;24.51;44.63;94997.19;5056228;28;20295;-65
2023/08/19 07:14:29;;;;;;;5.25;3.85;;;;;;;24.54;44.69;94999.09;5072866;28;20573;-65
2023/08/19 07:20:26;;;;;;;4.03;3.70;;;;;;;24.62;44.36;94992.03;5055893;28;20195;-65
2023/08/19 07:22:59;;;;;;;4.88;3.58;;;;;;;24.66;44.29;95001.19;5055404;28;20194;-65
2023/08/19 07:25:28;;;;;;;4.13;3.83;;;;;;;24.70;43.87;95003.91;5055473;28;20207;-65
2023/08/19 07:27:57;;;;;;;4.45;3.90;;;;;;;24.72;44.41;95007.84;5056050;28;20208;-65
2023/08/19 07:30:27;;;;;;;4.30;3.60;;;;;;;24.73;43.80;94994.56;5055457;28;20190;-65
2023/08/19 07:32:59;;;;;;;6.03;4.03;;;;;;;24.73;43.73;94991.75;5072291;28;20565;-65
2023/08/19 07:35:36;;;;;;;4.75;4.03;;;;;;;24.76;43.84;94993.66;5055951;28;20274;-65
2023/08/19 07:38:04;;;;;;;4.10;3.80;;;;;;;24.81;43.63;94995.13;5056563;28;20216;-65
2023/08/19 07:40:31;;;;;;;3.63;3.28;;;;;;;24.85;43.26;94999.44;5058457;28;20514;-66
2023/08/19 07:42:59;;;;;;;4.65;3.35;;;;;;;24.90;40.50;94998.88;5058333;28;20272;-65
2023/08/19 07:45:27;;;;;;;3.53;3.08;;;;;;;24.93;39.78;95000.78;5059098;28;20303;-65
2023/08/19 07:47:56;;;;;;;5.80;3.80;;;;;;;25.00;40.68;95005.44;5076288;28;20208;-64
2023/08/19 07:50:24;;;;;;;3.72;3.42;;;;;;;25.06;40.65;94998.00;5058515;28;20200;-65
2023/08/19 07:52:54;;;;;;;3.63;3.33;;;;;;;25.12;40.71;95006.72;5075087;28;20201;-65
2023/08/19 07:55:21;;;;;;;4.35;3.15;;;;;;;25.13;40.55;95000.66;5058360;28;20688;-65
2023/08/19 07:57:52;;;;;;;3.60;3.30;;;;;;;25.08;39.67;95001.16;5074853;28;20220;-65
2023/08/19 08:00:22;;;;;;;3.72;3.42;;;;;;;24.99;41.09;94998.22;5058105;28;20220;-68
2023/08/19 08:02:49;;;;;;;4.95;3.35;;;;;;;24.91;41.26;95006.13;5074656;28;20212;-67
2023/08/19 08:05:18;;;;;;;3.47;3.17;;;;;;;24.84;41.65;94999.88;5058771;28;20204;-65
2023/08/19 08:07:46;;;;;;;4.40;3.35;;;;;;;24.74;42.26;95004.59;5058123;28;20209;-67
2023/08/19 08:10:16;;;;;;;6.88;3.90;;;;;;;24.76;42.00;94992.84;5057904;28;20618;-66
2023/08/19 08:12:43;;;;;;;3.60;3.30;;;;;;;24.74;41.62;95004.59;5057860;28;20534;-65
2023/08/19 08:15:14;;;;;;;3.88;3.53;;;;;;;24.72;42.01;95005.03;5058100;28;20208;-66
2023/08/19 08:17:41;;;;;;;3.50;3.20;;;;;;;24.71;42.98;94997.03;5058534;28;20209;-64
2023/08/19 08:20:10;;;;;;;6.43;3.58;;;;;;;24.73;43.34;95008.66;5058332;28;20223;-66
2023/08/19 08:22:37;;;;;;;3.83;3.33;;;;;;;24.72;42.95;95007.06;5057959;28;20204;-66
2023/08/19 08:25:06;;;;;;;4.78;3.30;;;;;;;24.76;42.54;95012.59;5058297;28;20291;-67
2023/08/19 08:27:40;;;;;;;3.67;3.38;;;;;;;24.87;43.00;95002.56;5058037;28;20208;-67
2023/08/19 08:30:11;;;;;;;4.07;3.75;;;;;;;24.91;42.28;95005.28;5074186;28;20632;-66
2023/08/19 08:32:38;;;;;;;3.90;3.60;;;;;;;24.94;42.93;94996.72;5057415;28;20196;-67
2023/08/19 08:35:08;;;;;;;3.78;3.47;;;;;;;24.94;42.60;95001.59;5057952;28;20205;-67
2023/08/19 08:37:38;;;;;;;3.70;3.42;;;;;;;24.96;43.01;95002.72;5057088;28;20233;-66
2023/08/19 08:40:08;;;;;;;3.63;3.35;;;;;;;24.99;42.92;94998.22;5039565;28;20232;-67
2023/08/19 08:42:44;;;;;;;3.80;3.42;;;;;;;25.08;42.80;95003.97;5037785;28;20190;-66
2023/08/19 08:45:14;;;;;;;5.57;3.45;;;;;;;25.17;43.31;95006.19;5037192;28;20205;-65
2023/08/19 08:47:44;;;;;;;4.47;3.58;;;;;;;25.22;42.80;95008.44;5038191;28;20296;-65
2023/08/19 08:50:14;;;;;;;3.85;3.30;;;;;;;25.34;42.49;94995.56;5037650;28;20208;-65
2023/08/19 08:52:41;;;;;;;3.80;3.47;;;;;;;25.32;43.03;95001.69;5037589;28;20208;-65
2023/08/19 08:55:10;;;;;;;3.58;3.28;;;;;;;25.39;42.58;95000.66;5037953;28;20237;-65
2023/08/19 08:57:40;;;;;;;4.82;3.50;;;;;;;25.41;42.22;95001.78;5037591;28;20198;-65
2023/08/19 09:00:14;;;;;;;4.93;3.50;;;;;;;25.51;41.71;95004.72;5054028;28;20303;-65
2023/08/19 09:02:48;;;;;;;3.42;3.17;;;;;;;25.63;41.59;95001.09;5037638;28;20233;-65
2023/08/19 09:05:21;;;;;;;4.97;3.72;;;;;;;25.73;41.76;94999.19;5037441;28;20233;-65
2023/08/19 09:07:54;;;;;;;3.42;3.13;;;;;;;25.81;41.32;94994.88;5054565;28;20190;-65
2023/08/19 09:10:25;;;;;;;3.70;3.40;;;;;;;25.86;41.06;94994.34;5037655;28;20207;-65
2023/08/19 09:13:00;;;;;;;4.38;3.58;;;;;;;25.93;40.98;94996.94;5037618;28;20208;-65
2023/08/19 09:15:29;;;;;;;4.00;3.40;;;;;;;25.99;41.00;94995.09;5036820;28;20308;-65
2023/08/19 09:17:58;;;;;;;3.33;3.13;;;;;;;26.14;40.92;94995.38;5037708;28;20194;-65
2023/08/19 09:20:26;;;;;;;5.03;3.40;;;;;;;26.38;40.45;94988.06;5053651;28;20206;-65
2023/08/19 09:23:08;;;;;;;3.53;3.22;;;;;;;26.40;40.43;94990.47;5037297;28;20624;-65
2023/08/19 09:25:34;;;;;;;3.40;3.15;;;;;;;26.40;39.87;94985.59;5037435;28;20197;-65
2023/08/19 09:28:07;;;;;;;3.42;3.13;;;;;;;26.40;40.84;94987.63;5037155;28;20209;-65
2023/08/19 09:30:36;;;;;;;3.83;3.10;;;;;;;26.28;40.99;94982.78;5037491;28;20201;-65
2023/08/19 09:33:05;;;;;;;3.30;3.00;;;;;;;26.31;39.81;94979.84;5053616;28;20202;-65
2023/08/19 09:35:39;;;;;;;3.63;2.95;;;;;;;26.36;37.70;94984.13;5037124;28;20221;-65
2023/08/19 09:38:06;;;;;;;3.90;3.00;;;;;;;26.48;38.18;94971.22;5038882;28;20263;-65
2023/08/19 09:40:36;;;;;;;3.45;2.92;;;;;;;26.56;37.26;94981.03;5056966;28;20201;-65
2023/08/19 09:43:12;;;;;;;4.53;3.42;;;;;;;26.64;37.02;94979.50;5056894;28;20280;-65
2023/08/19 09:45:42;;;;;;;3.25;3.00;;;;;;;26.89;36.98;94972.91;5073548;28;20196;-65
2023/08/19 09:48:15;;;;;;;3.38;3.05;;;;;;;27.11;37.42;94968.03;5058398;28;20215;-65
2023/08/19 09:50:46;;;;;;;3.03;2.78;;;;;;;27.38;35.84;94965.81;5060363;28;20244;-65
2023/08/19 09:53:22;;;;;;;4.38;2.70;;;;;;;27.53;34.50;94967.63;5060743;28;20204;-65
2023/08/19 09:55:54;;;;;;;3.45;2.90;;;;;;;27.73;34.26;94974.91;5061114;28;20204;-65
2023/08/19 09:58:26;;;;;;;3.42;3.20;;;;;;;27.77;35.95;94975.56;5060906;28;20216;-65
2023/08/19 10:00:57;;;;;;;3.40;3.10;;;;;;;27.70;35.60;94979.44;5060920;28;20205;-65
2023/08/19 10:03:28;;;;;;;3.33;3.05;;;;;;;27.59;34.73;94976.28;5060386;28;20208;-65
2023/08/19 10:05:58;;;;;;;3.45;2.88;;;;;;;27.54;34.40;94976.91;5060416;28;20197;-65
2023/08/19 10:08:30;;;;;;;3.10;2.88;;;;;;;27.57;34.81;94975.97;5060501;28;20193;-65
2023/08/19 10:11:00;;;;;;;3.22;2.92;;;;;;;27.59;35.26;94971.38;5060218;28;20254;-65
2023/08/19 10:13:34;;;;;;;3.63;3.00;;;;;;;27.51;35.49;94970.09;5060528;28;20197;-65
2023/08/19 10:16:08;;;;;;;3.80;3.17;;;;;;;27.32;35.54;94979.78;5060894;28;20197;-65
2023/08/19 10:18:37;;;;;;;3.83;3.00;;;;;;;27.27;33.87;94975.53;5060425;28;20231;-65
2023/08/19 10:21:09;;;;;;;3.45;2.80;;;;;;;27.28;33.74;94970.66;5060269;28;20212;-65
2023/08/19 10:23:42;;;;;;;3.03;2.80;;;;;;;27.33;34.63;94972.88;5060257;28;20204;-65
2023/08/19 10:26:09;;;;;;;2.75;2.55;;;;;;;27.42;34.92;94972.13;5060363;28;20211;-65
2023/08/19 10:28:41;;;;;;;5.13;2.90;;;;;;;27.49;33.67;94966.16;5060282;28;20181;-65
2023/08/19 10:31:12;;;;;;;4.40;2.72;;;;;;;27.47;34.47;94963.03;5060637;28;20240;-65
2023/08/19 10:33:46;;;;;;;5.35;2.90;;;;;;;27.52;33.57;94960.34;5060250;28;20614;-65
2023/08/19 10:36:17;;;;;;;3.13;2.67;;;;;;;27.57;34.17;94948.44;5060257;28;20257;-65
2023/08/19 10:38:49;;;;;;;2.65;2.45;;;;;;;27.63;34.25;94950.63;5056113;28;20237;-65
2023/08/19 10:41:27;;;;;;;3.85;2.90;;;;;;;27.65;34.42;94968.75;5056417;28;20232;-65
2023/08/19 10:44:03;;;;;;;4.00;3.08;;;;;;;27.71;33.98;94955.56;5056411;28;20263;-65
2023/08/19 10:46:34;;;;;;;3.42;3.13;;;;;;;28.06;34.20;94952.50;5055920;28;20220;-65
2023/08/19 10:49:04;;;;;;;2.90;2.70;;;;;;;28.22;34.17;94943.69;5056237;28;20201;-65
2023/08/19 10:51:51;;;;;;;3.92;2.83;;;;;;;28.23;34.03;94950.16;5073347;28;20293;-66
2023/08/19 10:54:27;;;;;;;3.15;2.95;;;;;;;28.03;33.82;94942.09;5056628;28;20371;-65
2023/08/19 10:57:15;;;;;;;2.95;2.75;;;;;;;27.80;34.14;94930.09;5056069;28;20250;-65
2023/08/19 10:59:45;;;;;;;3.45;2.95;;;;;;;27.79;33.63;94956.06;5055191;28;20646;-65
2023/08/19 11:02:14;;;;;;;3.00;2.80;;;;;;;27.93;33.61;94946.19;5056000;28;20197;-65
2023/08/19 11:04:43;;;;;;;4.43;2.80;;;;;;;28.07;33.32;94942.75;5055719;28;20202;-66
2023/08/19 11:07:12;;;;;;;3.30;3.00;;;;;;;28.31;33.42;94955.03;5056303;28;20200;-66
2023/08/19 11:09:41;;;;;;;4.00;3.00;;;;;;;28.59;32.98;94952.22;5055693;28;20630;-66
2023/08/19 11:12:10;;;;;;;3.92;2.70;;;;;;;28.73;32.92;94954.44;5056470;28;20201;-65
2023/08/19 11:14:38;;;;;;;3.55;3.03;;;;;;;28.68;32.75;94955.03;5056210;28;20293;-65
2023/08/19 11:17:07;;;;;;;3.35;3.08;;;;;;;28.52;32.66;94952.56;5072791;28;20190;-65
2023/08/19 11:19:36;;;;;;;3.30;2.97;;;;;;;28.36;32.68;94952.81;5056384;28;20217;-65
2023/08/19 11:22:05;;;;;;;3.40;3.13;;;;;;;28.21;33.07;94944.94;5056070;28;20198;-65
2023/08/19 11:24:36;;;;;;;3.28;3.08;;;;;;;28.26;33.09;94949.22;5055424;28;20590;-65
2023/08/19 11:27:04;;;;;;;4.28;2.67;;;;;;;28.34;33.06;94941.19;5055916;28;20297;-66
2023/08/19 11:29:34;;;;;;;4.18;3.13;;;;;;;28.50;33.35;94947.34;5055430;28;20202;-65
2023/08/19 11:32:04;;;;;;;5.82;3.20;;;;;;;28.78;33.16;94939.59;5055588;28;20286;-65
2023/08/19 11:34:34;;;;;;;3.80;3.10;;;;;;;28.98;33.25;94932.63;5055680;28;20186;-65
2023/08/19 11:37:09;;;;;;;4.35;3.20;;;;;;;29.12;32.81;94931.19;5055308;28;20190;-65
2023/08/19 11:39:37;;;;;;;3.25;2.95;;;;;;;29.00;32.58;94938.63;5055074;28;20676;-65
2023/08/19 11:42:05;;;;;;;4.78;3.20;;;;;;;28.96;33.03;94946.50;5055358;28;20213;-65
2023/08/19 11:44:38;;;;;;;3.08;2.70;;;;;;;28.78;33.21;94931.06;5055110;28;20671;-65
2023/08/19 11:47:09;;;;;;;3.60;3.17;;;;;;;28.69;32.85;94936.00;5055561;28;20255;-65
2023/08/19 11:49:42;;;;;;;3.30;3.10;;;;;;;28.62;34.36;94936.31;5055400;28;20259;-65